Monday, September 1, 2014, 3:28 AM EDT

KDYL, Doylestown Airport

Location: Doylestown, PA, United States Lat: 40.333
Local Time: 3:28 AM EDT ( 7:28 GMT) Lon: -75.117
Time Zone: US/Eastern Elev: 393 ft

Show me the last for .
Show Decoded

2014-09-01 02:54 METAR KDYL 010654Z AUTO 00000KT 10SM SCT110 22/22 A3000 RMK AO2 RAE0555 SLP153
                 P0000 T02170217 =
2014-09-01 01:54 METAR KDYL 010554Z AUTO 21004KT 10SM -RA SCT006 SCT065 BKN085 22/22 A3001 RMK
                 AO2 RAB02 SLP155 P0001 60002 T02220222 10244 20222 58005 =
2014-09-01 00:54 METAR KDYL 010454Z AUTO 20004KT 10SM SCT004 BKN060 OVC085 22/22 A3003 RMK AO2
                 SLP161 T02220222 403170200 =
2014-09-01 00:03 METAR KDYL 010403Z AUTO 21005KT 10SM FEW004 SCT085 OVC110 22/22 A3002 RMK AO2
                 T02220222 =
2014-08-31 23:54 METAR KDYL 010354Z AUTO 22005KT 10SM BKN085 OVC110 22/22 A3002 RMK AO2 SLP158
                 T02220222 =
2014-08-31 22:54 METAR KDYL 010254Z AUTO 19005KT 10SM SCT090 OVC110 22/22 A3002 RMK AO2 SLP161
                 60001 T02220217 50005 =
2014-08-31 21:54 METAR KDYL 010154Z AUTO 20003KT 10SM FEW120 23/22 A3002 RMK AO2 RAE11 SLP161
                 P0000 T02280222 =
2014-08-31 20:54 METAR KDYL 010054Z AUTO 18003KT 10SM -RA FEW090 FEW120 23/23 A3002 RMK AO2 RAB43
                 SLP161 P0001 T02330228 =
2014-08-31 19:54 METAR KDYL 312354Z AUTO 25004KT 10SM CLR 24/23 A3001 RMK AO2 SLP157 60010
                 T02440228 10317 20222 51007 =
2014-08-31 18:54 METAR KDYL 312254Z AUTO 22003KT 10SM FEW055 24/23 A3000 RMK AO2 LTG DSNT S
                 SLP155 T02440233 =
2014-08-31 16:54 METAR KDYL 312054Z AUTO 24004KT 10SM FEW080 24/23 A2999 RMK AO2 RAE1957B03E38
                 SLP149 P0005 60010 T02390228 58001 =
2014-08-31 16:26 METAR KDYL 312026Z AUTO VRB05KT 6SM -RA BR FEW047 SCT075 OVC090 23/22 A3001 RMK
                 AO2 RAE1957B03 P0005 T02280217 =
2014-08-31 16:11 METAR KDYL 312011Z AUTO VRB04KT 10SM VCTS -RA FEW055 OVC090 23/22 A3002 RMK AO2
                 LTG DSNT SW RAE1957B03 P0000 T02280217 =
2014-08-31 16:01 METAR KDYL 312001Z AUTO 19003KT 10SM FEW008 BKN055 OVC085 23/22 A3002 RMK AO2
                 LTG DSNT SW RAE1957 P0000 T02280217 =
2014-08-31 15:54 METAR KDYL 311954Z AUTO VRB03KT 10SM VCTS -RA FEW009 BKN065 OVC100 23/22 A3002
                 RMK AO2 LTG DSNT NE AND SW AND W RAB10 TSB17E51 SLP159 P0005 T02330217 =
2014-08-31 15:51 METAR KDYL 311951Z AUTO 26005KT 10SM VCTS -RA FEW009 BKN040 OVC080 24/22 A3001
                 RMK AO2 LTG DSNT NE AND SW AND W RAB10 TSB17E51 P0005 =
2014-08-31 15:23 METAR KDYL 311923Z AUTO 29006KT 7SM -TSRA SCT046 BKN055 OVC100 26/23 A3000 RMK
                 AO2 LTG DSNT NE AND SW RAB10 TSB17 P0002 T02560228 =
2014-08-31 15:08 METAR KDYL 311908Z AUTO 24007KT 10SM VCTS FEW048 BKN070 OVC100 29/21 A2999 RMK
                 AO2 LTG DSNT ALQDS T02940211 =
2014-08-31 14:54 METAR KDYL 311854Z AUTO 20009G16KT 160V230 10SM FEW043 SCT065 BKN080 29/21 A2999
                 RMK AO2 LTG DSNT SW AND W SLP149 T02940206 =
2014-08-31 13:54 METAR KDYL 311754Z AUTO 21007G16KT 10SM SCT040 SCT046 31/21 A3002 RMK AO2 SLP159
                 T03060206 10311 20222 58021 =
2014-08-31 12:54 METAR KDYL 311654Z AUTO 23008KT 180V260 10SM SCT032 31/22 A3004 RMK AO2 SLP165
                 T03060217 =
2014-08-31 11:54 METAR KDYL 311554Z AUTO 22006KT 10SM SCT026 BKN035 BKN041 28/22 A3006 RMK AO2
                 SLP174 T02830217 =
2014-08-31 11:38 METAR KDYL 311538Z AUTO 23008G16KT 10SM SCT026 BKN035 BKN042 28/22 A3007 RMK AO2
                 T02780217 =
2014-08-31 11:28 METAR KDYL 311528Z AUTO 23009KT 10SM BKN026 BKN035 28/22 A3007 RMK AO2 T02780222
                 =
2014-08-31 10:54 METAR KDYL 311454Z AUTO 19008KT 150V230 10SM SCT023 28/22 A3008 RMK AO2 SLP180
                 T02780222 58012 =
2014-08-31 10:02 METAR KDYL 311402Z AUTO 21007KT 10SM SCT014 26/22 A3009 RMK AO2 T02560222 =
2014-08-31 09:54 METAR KDYL 311354Z AUTO 19006G14KT 10SM BKN014 26/22 A3010 RMK AO2 SLP186
                 T02560222 =
2014-08-31 09:15 METAR KDYL 311315Z AUTO 21006KT 10SM OVC010 24/22 A3011 RMK AO2 CIG 009V014
                 T02390222 =
2014-08-31 08:54 METAR KDYL 311254Z AUTO VRB06KT 10SM OVC009 23/22 A3011 RMK AO2 CIG 008V012
                 SLP190 T02330222 =
2014-08-31 07:54 METAR KDYL 311154Z AUTO 21005KT 10SM OVC007 22/22 A3012 RMK AO2 SLP193 T02220217
                 10222 20200 53001 =
2014-08-31 06:54 METAR KDYL 311054Z AUTO 20004KT 10SM BKN009 OVC013 22/21 A3011 RMK AO2 SLP192
                 T02170206 =
2014-08-31 06:24 METAR KDYL 311024Z AUTO 19003KT 10SM OVC009 22/21 A3011 RMK AO2 T02170206 =
2014-08-31 05:54 METAR KDYL 310954Z AUTO 20003KT 10SM OVC010 22/20 A3011 RMK AO2 SLP190 T02170200
                 =
2014-08-31 04:54 METAR KDYL 310854Z AUTO 17004KT 10SM OVC013 21/19 A3011 RMK AO2 SLP192 T02110194
                 58009 =
2014-08-31 04:33 METAR KDYL 310833Z AUTO VRB03KT 10SM OVC013 21/19 A3012 RMK AO2 T02110194 =
2014-08-31 04:12 METAR KDYL 310812Z AUTO 19003KT 10SM BKN017 21/19 A3012 RMK AO2 T02060189 =
2014-08-31 03:54 METAR KDYL 310754Z AUTO 00000KT 10SM SCT019 21/19 A3012 RMK AO2 SLP196 T02060189
                 =

Support USWX by starting your Amazon purchase here.